Primera, Texas
Current Conditions -  °F | °C
As of 8:52 PM on Sunday 23 Nov 2014 (Local Time) from KHRL Reporting Station
Clear Clear  
Wind Chill: 62°   Ceiling: Unl
Heat Index: 62°   Visibility: 10mi
Dew Point: 57°   Wind: 6mph
Humidity: 84%   Direction: 160°SSE
Pressure: 29.7"   Gusts: NA
Location:  26.2089°N, 97.6849°W
Report Text: KHRL 240252Z 16005KT 10SM CLR 17/14 A2970 RMK AO2 SLP057 T01670139 53022
Loading
Personal Weather Stations






























Interactive Weather Map New forecast layout! Learn more

10-Day Weather Forecast

Advertisements
Track Severe Weather on mobile